International Virtual Aviation Organisation

Russian Federation and Kazakhstan MCD

 
UASK 271700Z VRB01MPS 0050 R12/0275 FZFG VV001 M19/M20 Q1032 R12/890245 NOSIG RMK QBB040 QFE749/0998
QNH:(hPa/inHg/mmHg)1032 / 30.47 / 774
QFE:(hPa/inHg/mmHg)997 / 29.44 / 748
Temperature-19
Dew Point-20
Visibility0050
WeatherFreezing Fog
Cloud CoverVV (100);
Transition Height1200 m./4900 ft.
Transition LevelFL60
SQUAWK